Time;durP1;ratioP1;P1;durP2;ratioP2;P2;SDS_P1;SDS_P2;PMS_P1;PMS_P2;Temp;Humidity;BMP_temperature;BMP_pressure;BME280_temperature;BME280_humidity;BME280_pressure;Samples;Min_cycle;Max_cycle;Signal;HPM_P1;HPM_P2
2021/04/08 00:01:10;;;;;;;11.48;4.93;;;2.60;99.90;;;;;;5011726;28;20037;-86
2021/04/08 00:03:36;;;;;;;6.97;5.07;;;2.60;99.90;;;;;;5012566;28;20018;-85
2021/04/08 00:06:02;;;;;;;7.95;4.60;;;2.60;99.90;;;;;;5008489;28;20022;-88
2021/04/08 00:08:28;;;;;;;8.65;4.75;;;2.60;99.90;;;;;;5011346;28;20018;-83
2021/04/08 00:10:54;;;;;;;11.48;5.00;;;2.50;99.90;;;;;;5011022;28;20033;-87
2021/04/08 00:13:20;;;;;;;6.05;4.20;;;2.50;99.90;;;;;;5010494;28;20184;-89
2021/04/08 00:15:45;;;;;;;5.47;4.30;;;2.50;99.90;;;;;;5012319;28;20101;-87
2021/04/08 00:18:11;;;;;;;7.07;4.43;;;2.50;99.90;;;;;;5013365;28;20033;-89
2021/04/08 00:20:37;;;;;;;6.57;4.28;;;2.60;99.90;;;;;;5011185;28;20046;-88
2021/04/08 00:23:03;;;;;;;6.40;4.00;;;2.50;99.90;;;;;;5011858;28;20037;-89
2021/04/08 00:25:29;;;;;;;7.70;4.10;;;2.50;99.90;;;;;;5011786;28;20022;-87
2021/04/08 00:27:54;;;;;;;7.68;3.95;;;2.50;99.90;;;;;;5011343;28;20390;-88
2021/04/08 00:30:21;;;;;;;6.05;4.32;;;2.50;99.90;;;;;;5011417;28;20097;-89
2021/04/08 00:32:46;;;;;;;6.78;4.05;;;2.60;99.90;;;;;;5010809;28;20081;-89
2021/04/08 00:35:12;;;;;;;5.75;4.05;;;2.60;99.90;;;;;;5012254;28;20117;-89
2021/04/08 00:37:38;;;;;;;8.68;4.20;;;2.50;99.90;;;;;;5012961;28;20022;-88
2021/04/08 00:40:12;;;;;;;5.72;4.15;;;2.60;99.90;;;;;;5013040;28;20505;-89
2021/04/08 00:42:42;;;;;;;5.65;3.72;;;2.60;99.90;;;;;;5011638;28;20018;-89
2021/04/08 00:45:10;;;;;;;7.50;4.38;;;2.60;99.90;;;;;;5010595;28;20461;-88
2021/04/08 00:47:36;;;;;;;8.00;4.57;;;2.60;99.90;;;;;;5010507;28;20387;-85
2021/04/08 00:50:04;;;;;;;6.53;4.50;;;2.60;99.90;;;;;;5013558;28;20030;-89
2021/04/08 00:52:31;;;;;;;6.38;4.30;;;2.50;99.90;;;;;;5010853;28;20727;-89
2021/04/08 00:54:57;;;;;;;7.70;4.55;;;2.40;99.90;;;;;;5012712;28;20081;-87
2021/04/08 00:57:23;;;;;;;7.60;4.25;;;2.40;99.90;;;;;;5011960;28;20417;-89
2021/04/08 00:59:51;;;;;;;11.55;4.47;;;2.40;99.90;;;;;;5011484;28;20028;-88
2021/04/08 01:02:17;;;;;;;10.02;3.90;;;2.40;99.90;;;;;;5012875;28;20029;-88
2021/04/08 01:04:43;;;;;;;7.30;4.25;;;2.40;99.90;;;;;;5010049;28;20022;-88
2021/04/08 01:07:09;;;;;;;6.90;4.47;;;2.30;99.90;;;;;;5011671;28;20029;-88
2021/04/08 01:09:34;;;;;;;8.13;3.97;;;2.40;99.90;;;;;;5013205;28;20109;-89
2021/04/08 01:12:00;;;;;;;7.70;4.13;;;2.40;99.90;;;;;;5011177;28;20121;-88
2021/04/08 01:14:26;;;;;;;12.60;3.85;;;2.50;99.90;;;;;;5011822;28;20608;-89
2021/04/08 01:17:05;;;;;;;7.07;4.25;;;2.50;99.90;;;;;;5012010;28;20026;-86
2021/04/08 01:19:46;;;;;;;6.45;4.13;;;2.50;99.90;;;;;;5011907;28;20495;-89
2021/04/08 01:22:24;;;;;;;6.28;4.28;;;2.50;99.90;;;;;;5010837;28;20104;-88
2021/04/08 01:25:23;;;;;;;7.07;4.82;;;2.60;99.90;;;;;;5011394;28;20049;-88
2021/04/08 01:28:18;;;;;;;10.15;5.10;;;2.50;99.90;;;;;;5001554;28;20025;-91
2021/04/08 01:30:46;;;;;;;8.85;5.18;;;2.50;99.90;;;;;;5010291;28;20034;-89
2021/04/08 01:33:25;;;;;;;6.20;4.80;;;2.40;99.90;;;;;;5010337;28;20343;-87
2021/04/08 01:35:52;;;;;;;7.50;5.05;;;2.40;99.90;;;;;;5008310;28;20462;-88
2021/04/08 01:38:31;;;;;;;12.85;5.43;;;2.30;99.90;;;;;;5010396;28;20103;-86
2021/04/08 01:40:59;;;;;;;7.30;5.00;;;2.40;99.90;;;;;;5012458;28;20374;-88
2021/04/08 01:43:27;;;;;;;9.05;5.03;;;2.40;99.90;;;;;;5010366;28;20033;-89
2021/04/08 01:45:56;;;;;;;11.32;5.97;;;2.50;99.90;;;;;;5011568;28;20107;-86
2021/04/08 01:48:22;;;;;;;6.95;4.93;;;2.40;99.90;;;;;;5011285;28;20033;-88
2021/04/08 01:50:54;;;;;;;7.22;4.85;;;2.40;99.90;;;;;;5010459;28;20482;-84
2021/04/08 01:53:21;;;;;;;15.45;5.68;;;2.40;99.90;;;;;;5010018;28;20489;-88
2021/04/08 01:55:50;;;;;;;10.27;6.13;;;2.50;99.90;;;;;;5012846;28;20033;-88
2021/04/08 01:58:18;;;;;;;9.10;6.25;;;2.50;99.90;;;;;;5008548;28;20026;-86
2021/04/08 02:00:45;;;;;;;9.35;5.40;;;2.50;99.90;;;;;;5010967;28;20496;-88
2021/04/08 02:03:13;;;;;;;8.27;5.10;;;2.50;99.90;;;;;;5010862;28;20030;-87
2021/04/08 02:05:40;;;;;;;7.30;5.03;;;2.50;99.90;;;;;;5007062;28;20049;-89
2021/04/08 02:08:08;;;;;;;13.55;5.47;;;2.50;99.90;;;;;;5011287;28;20045;-86
2021/04/08 02:10:36;;;;;;;11.63;5.47;;;2.50;99.90;;;;;;5012241;28;20018;-88
2021/04/08 02:13:04;;;;;;;10.68;5.03;;;2.50;99.90;;;;;;5012725;28;20030;-87
2021/04/08 02:15:31;;;;;;;8.13;5.20;;;2.60;99.90;;;;;;5014584;28;20048;-88
2021/04/08 02:17:59;;;;;;;14.80;5.45;;;2.50;99.90;;;;;;5013354;28;20028;-88
2021/04/08 02:20:31;;;;;;;8.07;5.35;;;2.50;99.90;;;;;;5011964;28;20045;-88
2021/04/08 02:23:01;;;;;;;9.32;5.32;;;2.60;99.90;;;;;;5015508;28;20022;-86
2021/04/08 02:25:30;;;;;;;7.55;5.05;;;2.50;99.90;;;;;;5012124;28;20025;-89
2021/04/08 02:27:59;;;;;;;8.07;5.10;;;2.50;99.90;;;;;;5015256;28;20429;-89
2021/04/08 02:30:25;;;;;;;8.52;5.20;;;2.50;99.90;;;;;;5014612;28;20048;-89
2021/04/08 02:32:53;;;;;;;8.48;5.40;;;2.50;99.90;;;;;;5015029;28;20498;-87
2021/04/08 02:35:19;;;;;;;9.18;5.50;;;2.50;99.90;;;;;;5015525;28;20071;-89
2021/04/08 02:37:47;;;;;;;9.60;5.25;;;2.50;99.90;;;;;;5012857;28;20026;-89
2021/04/08 02:40:15;;;;;;;10.35;5.18;;;2.60;99.90;;;;;;5015108;28;20025;-87
2021/04/08 02:42:41;;;;;;;8.00;4.65;;;2.50;99.90;;;;;;5012992;28;20026;-88
2021/04/08 02:45:08;;;;;;;6.80;4.75;;;2.50;99.90;;;;;;5012955;28;20034;-89
2021/04/08 02:47:34;;;;;;;6.57;4.50;;;2.50;99.90;;;;;;5013205;28;20589;-88
2021/04/08 02:50:00;;;;;;;12.73;4.93;;;2.50;99.90;;;;;;5013345;28;20034;-87
2021/04/08 02:52:40;;;;;;;13.40;4.90;;;2.50;99.90;;;;;;5012890;28;20032;-87
2021/04/08 02:55:20;;;;;;;7.50;4.78;;;2.50;99.90;;;;;;5014710;28;20030;-85
2021/04/08 02:57:59;;;;;;;11.95;4.72;;;2.50;99.90;;;;;;5014948;28;20022;-88
2021/04/08 03:00:32;;;;;;;9.55;5.38;;;2.60;99.90;;;;;;5014292;28;20014;-88
2021/04/08 03:03:05;;;;;;;10.88;5.40;;;2.60;99.90;;;;;;5014768;28;20386;-89
2021/04/08 03:05:34;;;;;;;7.95;5.03;;;2.60;99.90;;;;;;5013960;28;20053;-88
2021/04/08 03:08:04;;;;;;;7.05;5.00;;;2.60;99.90;;;;;;5014380;28;20402;-87
2021/04/08 03:10:31;;;;;;;7.53;4.90;;;2.60;99.90;;;;;;5014334;28;20021;-85
2021/04/08 03:13:00;;;;;;;12.57;5.72;;;2.60;99.90;;;;;;5014532;28;20076;-89
2021/04/08 03:15:29;;;;;;;10.15;5.60;;;2.60;99.90;;;;;;5014561;28;20018;-88
2021/04/08 03:17:57;;;;;;;15.02;6.00;;;2.60;99.90;;;;;;5013087;28;20025;-89
2021/04/08 03:20:23;;;;;;;8.10;5.35;;;2.60;99.90;;;;;;5013034;28;20049;-87
2021/04/08 03:22:52;;;;;;;8.25;5.15;;;2.60;99.90;;;;;;5014113;28;20029;-89
2021/04/08 03:25:18;;;;;;;15.45;5.63;;;2.60;99.90;;;;;;5013116;28;20441;-89
2021/04/08 03:27:44;;;;;;;22.38;5.80;;;2.60;99.90;;;;;;5014009;28;20101;-86
2021/04/08 03:30:13;;;;;;;11.32;6.00;;;2.60;99.90;;;;;;5013185;28;20056;-87
2021/04/08 03:32:39;;;;;;;8.23;5.45;;;2.60;99.90;;;;;;5014289;28;20057;-87
2021/04/08 03:35:11;;;;;;;13.98;5.45;;;2.60;99.90;;;;;;5012793;28;20021;-91
2021/04/08 03:37:37;;;;;;;11.65;7.13;;;2.60;99.90;;;;;;5014091;28;20049;-83
2021/04/08 03:40:04;;;;;;;7.75;5.60;;;2.50;99.90;;;;;;5013971;28;20033;-87
2021/04/08 03:42:31;;;;;;;14.68;5.70;;;2.50;99.90;;;;;;5012935;28;20029;-84
2021/04/08 03:44:57;;;;;;;12.65;5.60;;;2.50;99.90;;;;;;5012355;28;20022;-87
2021/04/08 03:47:23;;;;;;;10.82;5.30;;;2.60;99.90;;;;;;5012680;28;20080;-89
2021/04/08 03:49:51;;;;;;;9.35;5.38;;;2.60;99.90;;;;;;5012904;28;20095;-89
2021/04/08 03:52:17;;;;;;;10.65;5.28;;;2.50;99.90;;;;;;5005980;28;20053;-91
2021/04/08 03:54:44;;;;;;;10.77;5.88;;;2.60;99.90;;;;;;5013725;28;20026;-86
2021/04/08 03:57:18;;;;;;;9.15;6.00;;;2.70;99.90;;;;;;5013345;28;20076;-88
2021/04/08 03:59:45;;;;;;;11.82;5.93;;;2.70;99.90;;;;;;5013662;28;20022;-89
2021/04/08 04:02:16;;;;;;;11.85;6.63;;;2.70;99.90;;;;;;5012356;28;22757;-88
2021/04/08 04:04:46;;;;;;;10.25;6.80;;;2.70;99.90;;;;;;5012533;28;20021;-88
2021/04/08 04:07:12;;;;;;;14.05;7.13;;;2.70;99.90;;;;;;5013571;28;20022;-88
2021/04/08 04:09:39;;;;;;;14.40;7.03;;;2.70;99.90;;;;;;5013377;28;20029;-88
2021/04/08 04:12:05;;;;;;;17.48;6.95;;;2.70;99.90;;;;;;5013231;28;20490;-90
2021/04/08 04:14:33;;;;;;;13.80;6.50;;;2.70;99.90;;;;;;5013875;28;20070;-89
2021/04/08 04:17:23;;;;;;;10.20;6.82;;;2.70;99.90;;;;;;5013377;28;20022;-86
2021/04/08 04:19:49;;;;;;;12.20;6.07;;;2.70;99.90;;;;;;5013505;28;20037;-88
2021/04/08 04:22:14;;;;;;;11.70;6.60;;;2.60;99.90;;;;;;5013314;28;20390;-87
2021/04/08 04:24:40;;;;;;;16.67;6.57;;;2.70;99.90;;;;;;5013777;28;20374;-88
2021/04/08 04:27:06;;;;;;;19.20;7.28;;;2.70;99.90;;;;;;5011904;28;20025;-87
2021/04/08 04:29:31;;;;;;;12.57;6.20;;;2.70;99.90;;;;;;5012051;28;20021;-87
2021/04/08 04:31:57;;;;;;;15.43;6.88;;;2.70;99.90;;;;;;5012616;28;20034;-88
2021/04/08 04:34:23;;;;;;;12.00;6.35;;;2.70;99.90;;;;;;5011986;28;20034;-90
2021/04/08 04:36:49;;;;;;;9.10;5.88;;;2.70;99.90;;;;;;5011950;28;20521;-89
2021/04/08 04:39:14;;;;;;;9.57;6.10;;;2.90;99.90;;;;;;5012043;28;20028;-88
2021/04/08 04:41:40;;;;;;;10.32;6.55;;;2.90;99.90;;;;;;5010987;28;20061;-89
2021/04/08 04:44:06;;;;;;;13.43;6.10;;;3.00;99.90;;;;;;5012119;28;20030;-89
2021/04/08 04:46:32;;;;;;;9.27;5.78;;;3.10;99.90;;;;;;5012642;28;20020;-90
2021/04/08 04:48:59;;;;;;;10.70;5.95;;;3.10;99.90;;;;;;5013203;28;20025;-87
2021/04/08 04:51:25;;;;;;;8.50;6.20;;;3.10;99.90;;;;;;5012919;28;20046;-88
2021/04/08 04:53:51;;;;;;;12.75;6.38;;;3.20;99.90;;;;;;5013209;28;20490;-89
2021/04/08 04:56:16;;;;;;;15.27;6.32;;;3.30;99.90;;;;;;5014179;28;20024;-93
2021/04/08 04:58:42;;;;;;;16.58;6.35;;;3.40;99.90;;;;;;5013865;28;20401;-89
2021/04/08 05:01:08;;;;;;;14.20;6.47;;;3.50;99.90;;;;;;5012203;28;20018;-91
2021/04/08 05:03:34;;;;;;;11.65;6.03;;;3.60;99.90;;;;;;5012586;28;20089;-87
2021/04/08 05:05:59;;;;;;;7.82;5.45;;;4.10;99.90;;;;;;5013330;28;20030;-89
2021/04/08 05:08:25;;;;;;;9.90;5.90;;;4.70;99.90;;;;;;5015692;28;20068;-95
2021/04/08 05:10:51;;;;;;;11.25;5.22;;;5.30;99.90;;;;;;5013152;28;20120;-91
2021/04/08 05:13:16;;;;;;;8.93;5.63;;;5.80;99.90;;;;;;5013154;28;20042;-91
2021/04/08 05:15:42;;;;;;;11.88;5.47;;;6.40;99.90;;;;;;5012330;28;20029;-91
2021/04/08 05:18:08;;;;;;;13.43;5.88;;;7.00;99.90;;;;;;5012994;28;20102;-93
2021/04/08 05:20:34;;;;;;;10.02;4.88;;;7.40;99.90;;;;;;5012557;28;20045;-84
2021/04/08 05:22:59;;;;;;;12.77;5.53;;;7.80;99.90;;;;;;5012805;28;20030;-92
2021/04/08 05:25:25;;;;;;;13.93;5.15;;;8.30;99.90;;;;;;5011918;28;20029;-92
2021/04/08 05:27:51;;;;;;;9.63;4.80;;;8.80;99.90;;;;;;5013575;28;20386;-91
2021/04/08 05:30:17;;;;;;;7.05;4.78;;;9.40;99.90;;;;;;5011660;28;20033;-95
2021/04/08 05:32:43;;;;;;;7.25;4.93;;;9.90;99.90;;;;;;5015306;28;20042;-90
2021/04/08 05:35:11;;;;;;;11.15;5.07;;;10.40;99.90;;;;;;5017419;28;20098;-90
2021/04/08 05:37:37;;;;;;;9.77;5.20;;;10.90;99.90;;;;;;5013319;28;20057;-93
2021/04/08 05:40:03;;;;;;;19.85;5.50;;;11.40;99.90;;;;;;5012632;28;20050;-94
2021/04/08 05:42:29;;;;;;;9.90;5.15;;;11.70;99.90;;;;;;5018155;28;20022;-93
2021/04/08 05:45:36;;;;;;;13.50;5.45;;;12.30;98.70;;;;;;5018110;28;20049;-93
2021/04/08 05:48:02;;;;;;;7.90;4.90;;;12.60;97.60;;;;;;5016139;28;20021;-89
2021/04/08 05:50:28;;;;;;;9.52;5.30;;;12.70;96.60;;;;;;5017750;28;20028;-89
2021/04/08 05:52:53;;;;;;;8.75;5.13;;;12.90;96.30;;;;;;5015091;28;20044;-88
2021/04/08 05:55:19;;;;;;;11.93;4.93;;;13.50;95.30;;;;;;5016423;28;20093;-88
2021/04/08 05:57:45;;;;;;;17.95;5.38;;;14.00;94.10;;;;;;5014961;28;20033;-92
2021/04/08 06:00:13;;;;;;;11.88;5.30;;;14.40;92.80;;;;;;5014952;28;20374;-95
2021/04/08 06:02:38;;;;;;;11.73;4.88;;;14.80;92.10;;;;;;5015864;28;20036;-95
2021/04/08 06:05:06;;;;;;;12.32;4.35;;;15.20;91.10;;;;;;5015225;28;20378;-93
2021/04/08 06:07:32;;;;;;;11.40;4.60;;;15.50;90.10;;;;;;5015147;28;20041;-95
2021/04/08 06:09:59;;;;;;;7.72;4.55;;;15.70;89.20;;;;;;5015737;28;20474;-95
2021/04/08 06:12:25;;;;;;;11.45;4.68;;;16.10;88.10;;;;;;5015324;28;20041;-94
2021/04/08 06:14:51;;;;;;;12.70;5.00;;;16.30;86.50;;;;;;5014452;28;20045;-94
2021/04/08 06:17:17;;;;;;;7.00;4.35;;;16.80;85.50;;;;;;5016853;28;20040;-83
2021/04/08 06:19:43;;;;;;;5.35;3.75;;;17.20;83.30;;;;;;5027368;28;20037;-83
2021/04/08 06:22:10;;;;;;;9.82;4.82;;;17.30;82.30;;;;;;5033926;28;20006;-90
2021/04/08 06:24:36;;;;;;;9.23;4.38;;;17.30;82.10;;;;;;5036105;28;20022;-91
2021/04/08 06:27:02;;;;;;;11.13;3.80;;;17.60;81.00;;;;;;5037071;28;20040;-93
2021/04/08 06:29:28;;;;;;;6.10;3.42;;;17.90;79.70;;;;;;5035949;28;20001;-95
2021/04/08 06:31:54;;;;;;;8.95;4.25;;;18.00;79.10;;;;;;5020215;28;20137;-96
2021/04/08 06:34:19;;;;;;;8.43;3.63;;;18.00;78.50;;;;;;5018635;28;20022;-96
2021/04/08 06:36:46;;;;;;;16.00;4.35;;;18.10;77.70;;;;;;5017037;28;20536;-85
2021/04/08 06:39:12;;;;;;;12.05;4.25;;;18.30;77.20;;;;;;5014162;28;20030;-82
2021/04/08 06:41:39;;;;;;;11.00;3.80;;;18.50;76.30;;;;;;5014561;28;20465;-83
2021/04/08 06:44:10;;;;;;;9.18;4.07;;;18.60;75.80;;;;;;5014811;28;20103;-82
2021/04/08 06:46:40;;;;;;;6.65;3.50;;;18.80;75.10;;;;;;5015792;28;20374;-91
2021/04/08 06:49:26;;;;;;;14.35;3.78;;;18.90;75.00;;;;;;5015295;28;20045;-96
2021/04/08 06:51:58;;;;;;;6.75;3.60;;;19.20;74.80;;;;;;5014842;28;20029;-95
2021/04/08 06:54:25;;;;;;;6.35;3.72;;;19.30;73.40;;;;;;5013996;28;20041;-92
2021/04/08 06:56:53;;;;;;;10.43;3.17;;;19.20;73.40;;;;;;5013997;28;20038;-88
2021/04/08 06:59:20;;;;;;;9.55;3.33;;;19.70;73.10;;;;;;5011655;28;20029;-85
2021/04/08 07:01:46;;;;;;;8.38;3.42;;;20.30;72.30;;;;;;5012584;28;20022;-93
2021/04/08 07:04:13;;;;;;;6.47;3.30;;;20.90;70.70;;;;;;5015216;28;20433;-93
2021/04/08 07:06:40;;;;;;;12.98;3.20;;;21.30;69.40;;;;;;5014267;28;20037;-92
2021/04/08 07:09:09;;;;;;;12.88;3.35;;;21.10;68.70;;;;;;5014739;28;20025;-88
2021/04/08 07:11:36;;;;;;;11.30;3.80;;;21.30;68.80;;;;;;5013734;28;20030;-94
2021/04/08 07:14:06;;;;;;;8.13;2.85;;;21.70;68.30;;;;;;5014900;28;20029;-94
2021/04/08 07:16:32;;;;;;;6.28;3.53;;;22.00;66.60;;;;;;5014142;28;20025;-94
2021/04/08 07:18:59;;;;;;;12.27;3.40;;;22.70;65.50;;;;;;5015279;28;20026;-95
2021/04/08 07:21:38;;;;;;;11.40;3.03;;;23.10;64.70;;;;;;5014275;28;20120;-95
2021/04/08 07:24:07;;;;;;;8.75;3.40;;;23.50;62.00;;;;;;5033833;28;20061;-87
2021/04/08 07:27:00;;;;;;;10.48;3.42;;;23.40;62.50;;;;;;5014733;28;20030;-93
2021/04/08 07:29:41;;;;;;;5.43;2.90;;;23.80;61.40;;;;;;5011465;28;20022;-87
2021/04/08 07:32:15;;;;;;;9.82;2.97;;;24.20;59.70;;;;;;5009724;28;20048;-82
2021/04/08 07:34:46;;;;;;;5.85;2.80;;;24.50;59.10;;;;;;5013170;28;20414;-95
2021/04/08 07:37:53;;;;;;;6.20;2.80;;;24.90;57.30;;;;;;5015468;28;20018;-89
2021/04/08 07:40:25;;;;;;;4.20;2.72;;;24.60;56.40;;;;;;4969144;28;20018;-95
2021/04/08 07:43:16;;;;;;;4.63;2.72;;;24.80;55.60;;;;;;5038456;28;20040;-83
2021/04/08 07:46:38;;;;;;;4.20;2.10;;;25.00;55.10;;;;;;5024013;28;20018;-86
2021/04/08 07:49:24;;;;;;;2.80;1.92;;;26.10;53.70;;;;;;5023382;28;20026;-91
2021/04/08 07:51:50;;;;;;;6.53;2.10;;;26.60;51.30;;;;;;5016917;28;20030;-90
2021/04/08 07:54:21;;;;;;;4.22;2.15;;;26.60;49.20;;;;;;5019606;28;20085;-90
2021/04/08 07:56:47;;;;;;;3.90;2.25;;;26.50;49.00;;;;;;5016831;28;20026;-84
2021/04/08 07:59:26;;;;;;;7.30;2.85;;;26.20;48.70;;;;;;5014678;28;20152;-87
2021/04/08 08:02:25;;;;;;;3.47;2.30;;;26.30;49.70;;;;;;5019678;28;20022;-84
2021/04/08 08:05:26;;;;;;;2.40;2.00;;;26.70;48.10;;;;;;5012408;28;20038;-81
2021/04/08 08:07:54;;;;;;;8.50;2.15;;;25.90;47.20;;;;;;5014413;28;20174;-83
2021/04/08 08:10:25;;;;;;;4.00;2.00;;;24.60;47.70;;;;;;5012601;28;20061;-82
2021/04/08 08:12:52;;;;;;;4.70;2.00;;;23.90;48.70;;;;;;5013759;28;20053;-82
2021/04/08 08:15:28;;;;;;;3.42;2.35;;;23.20;49.00;;;;;;5015906;28;20052;-89
2021/04/08 08:17:55;;;;;;;6.13;2.20;;;22.30;49.80;;;;;;5014535;28;20080;-94
2021/04/08 08:20:22;;;;;;;3.47;2.10;;;21.80;51.10;;;;;;5011298;28;20498;-83
2021/04/08 08:22:48;;;;;;;3.78;1.65;;;21.40;48.50;;;;;;5012167;28;20045;-81
2021/04/08 08:25:20;;;;;;;3.75;2.33;;;20.70;50.10;;;;;;5011911;28;20113;-81
2021/04/08 08:27:48;;;;;;;6.72;2.75;;;19.90;50.10;;;;;;5013864;28;20488;-93
2021/04/08 08:30:33;;;;;;;6.97;3.33;;;19.10;51.90;;;;;;5012227;28;20014;-92
2021/04/08 08:33:01;;;;;;;15.98;2.80;;;18.40;52.40;;;;;;5013665;28;20076;-94
2021/04/08 08:35:28;;;;;;;9.80;3.08;;;17.80;52.00;;;;;;5011947;28;20071;-90
2021/04/08 08:37:56;;;;;;;12.75;2.70;;;;;;;;;;5013525;28;20037;-93
2021/04/08 08:40:22;;;;;;;11.82;2.40;;;17.10;54.70;;;;;;5013909;28;20128;-96
2021/04/08 08:42:51;;;;;;;3.55;2.20;;;16.90;55.40;;;;;;5013666;28;20065;-82
2021/04/08 08:45:19;;;;;;;4.45;2.72;;;16.80;52.90;;;;;;5012004;28;20108;-83
2021/04/08 08:47:46;;;;;;;10.38;2.78;;;16.80;55.30;;;;;;5011383;28;20480;-81
2021/04/08 08:50:15;;;;;;;5.85;2.15;;;16.80;55.20;;;;;;5009848;28;20039;-88
2021/04/08 08:52:53;;;;;;;4.90;1.98;;;16.90;51.10;;;;;;5013837;28;20486;-90
2021/04/08 08:55:22;;;;;;;3.40;2.03;;;16.70;51.20;;;;;;5012848;28;20021;-93
2021/04/08 08:57:53;;;;;;;7.38;2.42;;;16.80;53.20;;;;;;5011870;28;20087;-90
2021/04/08 09:00:22;;;;;;;8.88;2.17;;;16.80;53.20;;;;;;5011145;28;20033;-91
2021/04/08 09:02:48;;;;;;;5.45;1.95;;;16.80;51.70;;;;;;5010828;28;20640;-90
2021/04/08 09:05:21;;;;;;;13.48;2.28;;;16.80;51.60;;;;;;5013260;28;20061;-89
2021/04/08 09:07:51;;;;;;;3.13;2.30;;;16.80;53.10;;;;;;5013757;28;20041;-92
2021/04/08 09:10:34;;;;;;;3.97;2.67;;;16.90;54.70;;;;;;5012466;28;20022;-92
2021/04/08 09:13:00;;;;;;;9.65;3.83;;;16.80;57.30;;;;;;5011995;28;20022;-90
2021/04/08 09:15:27;;;;;;;7.85;2.95;;;16.70;59.00;;;;;;5013441;28;20022;-94
2021/04/08 09:18:01;;;;;;;4.25;2.70;;;16.80;59.40;;;;;;5015913;28;20029;-90
2021/04/08 09:20:28;;;;;;;5.45;4.10;;;16.80;58.00;;;;;;5017375;28;20133;-89
2021/04/08 09:22:59;;;;;;;9.55;4.53;;;16.80;58.10;;;;;;5016809;28;20044;-91
2021/04/08 09:25:32;;;;;;;4.32;2.80;;;16.70;59.10;;;;;;5016947;28;20014;-90
2021/04/08 09:28:10;;;;;;;7.13;3.55;;;16.70;57.40;;;;;;5017122;28;20101;-93
2021/04/08 09:30:50;;;;;;;3.92;2.20;;;16.80;55.90;;;;;;5016461;28;20474;-93
2021/04/08 09:33:16;;;;;;;4.57;2.42;;;16.70;52.20;;;;;;5010680;28;20022;-92
2021/04/08 09:35:43;;;;;;;5.00;2.67;;;16.80;53.50;;;;;;5015350;28;20038;-90
2021/04/08 09:38:09;;;;;;;4.70;2.88;;;16.90;54.90;;;;;;5015997;28;20022;-94
2021/04/08 09:40:41;;;;;;;4.55;2.70;;;17.10;55.40;;;;;;5016195;28;20021;-90
2021/04/08 09:43:08;;;;;;;;;;;17.20;56.00;;;;;;5014796;28;20084;-90
2021/04/08 09:45:35;;;;;;;14.18;3.58;;;17.20;57.00;;;;;;5014645;28;20000;-91
2021/04/08 09:48:16;;;;;;;14.05;3.35;;;17.10;57.20;;;;;;5015185;28;20029;-90
2021/04/08 09:50:57;;;;;;;9.50;3.42;;;16.80;56.80;;;;;;5015980;28;20029;-92
2021/04/08 09:53:29;;;;;;;6.07;3.13;;;16.80;57.70;;;;;;5012458;28;20062;-93
2021/04/08 09:56:02;;;;;;;6.57;2.95;;;16.80;57.50;;;;;;5016819;28;20034;-94
2021/04/08 09:58:33;;;;;;;5.35;3.13;;;16.70;57.50;;;;;;5016819;28;20037;-93
2021/04/08 10:01:04;;;;;;;6.63;3.33;;;16.70;56.30;;;;;;5014435;28;20025;-93
2021/04/08 10:03:43;;;;;;;4.70;2.60;;;16.70;56.70;;;;;;5010387;28;20065;-94
2021/04/08 10:06:16;;;;;;;6.75;2.97;;;16.60;55.00;;;;;;5013655;28;20084;-94
2021/04/08 10:08:43;;;;;;;4.22;2.15;;;16.50;54.40;;;;;;5014397;28;20029;-93
2021/04/08 10:11:10;;;;;;;5.47;2.85;;;16.30;55.00;;;;;;5015039;28;20054;-88
2021/04/08 10:13:36;;;;;;;5.18;2.92;;;16.30;55.30;;;;;;5007841;28;20034;-92
2021/04/08 10:16:09;;;;;;;3.90;2.35;;;16.50;55.80;;;;;;5017145;28;20026;-93
2021/04/08 10:18:35;;;;;;;5.47;2.55;;;16.50;55.10;;;;;;5015594;28;20026;-90
2021/04/08 10:21:09;;;;;;;3.13;2.28;;;16.50;55.50;;;;;;5018000;28;20081;-94
2021/04/08 10:23:37;;;;;;;2.47;2.00;;;16.50;56.10;;;;;;5015753;28;20061;-92
2021/04/08 10:26:08;;;;;;;5.22;2.92;;;16.50;55.80;;;;;;5016239;28;20470;-93
2021/04/08 10:28:39;;;;;;;2.60;2.03;;;16.50;56.20;;;;;;5011720;28;20114;-89
2021/04/08 10:31:25;;;;;;;4.43;2.28;;;16.50;54.10;;;;;;5014688;28;20367;-91
2021/04/08 10:33:54;;;;;;;4.25;2.20;;;16.50;53.50;;;;;;5013554;28;20025;-89
2021/04/08 10:36:30;;;;;;;4.30;2.45;;;16.20;53.60;;;;;;5014570;28;20382;-89
2021/04/08 10:39:27;;;;;;;7.45;2.55;;;16.00;55.30;;;;;;5013295;28;20025;-89
2021/04/08 10:41:59;;;;;;;3.88;2.60;;;16.10;57.10;;;;;;5012011;28;20092;-90
2021/04/08 10:44:46;;;;;;;5.63;2.80;;;16.00;58.60;;;;;;5013398;28;20030;-88
2021/04/08 10:47:18;;;;;;;3.83;2.20;;;15.90;58.90;;;;;;5014282;28;20022;-90
2021/04/08 10:49:44;;;;;;;4.07;2.55;;;15.70;56.30;;;;;;5014306;28;20038;-88
2021/04/08 10:52:26;;;;;;;4.43;2.85;;;15.70;58.10;;;;;;5013850;28;20028;-91
2021/04/08 10:54:56;;;;;;;4.82;2.97;;;15.80;59.40;;;;;;5012767;28;20429;-88
2021/04/08 10:57:23;;;;;;;6.90;3.22;;;15.70;60.80;;;;;;5013343;28;20026;-87
2021/04/08 10:59:50;;;;;;;7.93;3.38;;;15.60;60.80;;;;;;5011931;28;20022;-90
2021/04/08 11:02:47;;;;;;;4.93;3.25;;;15.60;62.20;;;;;;5013704;28;20042;-89
2021/04/08 11:05:17;;;;;;;6.18;2.95;;;15.60;62.10;;;;;;5015837;28;20021;-93
2021/04/08 11:08:29;;;;;;;6.10;3.28;;;15.60;62.90;;;;;;5017268;28;20374;-93
2021/04/08 11:11:32;;;;;;;6.00;3.58;;;15.70;63.30;;;;;;4980875;28;20390;-94
2021/04/08 11:14:13;;;;;;;5.78;3.17;;;15.80;63.00;;;;;;5008044;28;20045;-94
2021/04/08 11:19:46;;;;;;;6.85;3.55;;;15.60;63.90;;;;;;5007891;28;20037;-93
2021/04/08 11:22:34;;;;;;;7.20;4.25;;;15.60;64.20;;;;;;5014145;28;20042;-92
2021/04/08 11:25:08;;;;;;;6.47;3.67;;;15.60;65.20;;;;;;5025809;28;20030;-88
2021/04/08 11:27:38;;;;;;;6.30;3.28;;;15.50;64.40;;;;;;5012846;28;20422;-88
2021/04/08 11:30:08;;;;;;;4.88;3.17;;;15.50;64.40;;;;;;5013597;28;20037;-87
2021/04/08 11:32:57;;;;;;;4.50;3.30;;;15.30;64.50;;;;;;5012985;28;20032;-89
2021/04/08 11:35:40;;;;;;;7.60;3.20;;;15.20;65.40;;;;;;5018123;28;20095;-90
2021/04/08 11:38:14;;;;;;;4.47;3.40;;;15.10;64.70;;;;;;5015669;28;20021;-90
2021/04/08 11:41:41;;;;;;;15.00;3.22;;;15.10;65.50;;;;;;5020236;28;20053;-89
2021/04/08 11:44:26;;;;;;;3.80;2.25;;;15.10;60.90;;;;;;5006993;28;20117;-90
2021/04/08 11:46:53;;;;;;;9.57;3.17;;;15.20;60.40;;;;;;5015105;28;20046;-88
2021/04/08 11:49:20;;;;;;;11.35;2.95;;;15.10;61.20;;;;;;5013110;28;20026;-87
2021/04/08 11:51:48;;;;;;;4.25;2.53;;;15.10;61.90;;;;;;5013320;28;20072;-91
2021/04/08 11:54:16;;;;;;;7.88;2.90;;;15.10;59.30;;;;;;5012782;28;20032;-90
2021/04/08 11:56:43;;;;;;;14.13;3.40;;;15.00;61.80;;;;;;5010492;28;20033;-85
2021/04/08 11:59:15;;;;;;;7.00;2.90;;;15.00;63.80;;;;;;5013323;28;20049;-90
2021/04/08 12:01:53;;;;;;;4.35;2.83;;;15.00;60.10;;;;;;5013436;28;20060;-91
2021/04/08 12:04:26;;;;;;;3.97;2.22;;;15.00;59.70;;;;;;5012996;28;20037;-88
2021/04/08 12:07:06;;;;;;;10.07;3.00;;;15.00;60.80;;;;;;5030016;28;20064;-88
2021/04/08 12:09:36;;;;;;;8.98;2.80;;;15.00;60.60;;;;;;5020385;28;20032;-90
2021/04/08 12:12:03;;;;;;;4.78;2.50;;;14.90;60.30;;;;;;5020297;28;20017;-87
2021/04/08 12:14:29;;;;;;;5.60;2.58;;;14.80;59.20;;;;;;5023966;28;21407;-88
2021/04/08 12:17:09;;;;;;;11.48;2.40;;;14.70;60.60;;;;;;5026931;28;20022;-91
2021/04/08 12:19:39;;;;;;;10.55;2.20;;;14.70;59.40;;;;;;5020042;28;20064;-88
2021/04/08 12:22:08;;;;;;;6.35;3.15;;;14.80;59.70;;;;;;5021103;28;20030;-89
2021/04/08 12:24:34;;;;;;;10.98;2.58;;;14.80;63.30;;;;;;5024539;28;20049;-88
2021/04/08 12:27:00;;;;;;;3.55;2.65;;;14.80;64.50;;;;;;5017607;28;20101;-90
2021/04/08 12:29:26;;;;;;;7.90;3.10;;;14.90;66.20;;;;;;5011740;28;20113;-88
2021/04/08 12:31:54;;;;;;;6.65;3.25;;;14.80;68.00;;;;;;5011491;28;20029;-91
2021/04/08 12:34:23;;;;;;;11.02;3.22;;;14.60;69.50;;;;;;5013968;28;20025;-89
2021/04/08 12:36:50;;;;;;;13.20;3.42;;;14.50;70.30;;;;;;5013705;28;20500;-88
2021/04/08 12:39:16;;;;;;;11.68;3.67;;;14.50;70.50;;;;;;5013943;28;20045;-91
2021/04/08 12:41:43;;;;;;;11.18;3.80;;;14.50;70.80;;;;;;5014238;28;20467;-83
2021/04/08 12:44:08;;;;;;;4.75;3.40;;;14.40;71.40;;;;;;5014350;28;20042;-89
2021/04/08 12:46:34;;;;;;;3.83;3.00;;;14.50;69.50;;;;;;5012819;28;20179;-84
2021/04/08 12:49:00;;;;;;;10.43;3.97;;;14.50;68.10;;;;;;5013462;28;20026;-87
2021/04/08 12:51:27;;;;;;;10.50;4.65;;;14.50;70.80;;;;;;5009771;28;20022;-89
2021/04/08 12:53:53;;;;;;;5.80;4.45;;;14.40;71.20;;;;;;5010849;28;20072;-85
2021/04/08 12:56:19;;;;;;;12.00;5.15;;;14.40;71.20;;;;;;5010963;28;20045;-88
2021/04/08 12:58:45;;;;;;;9.73;4.82;;;14.40;73.90;;;;;;5010682;28;20018;-86
2021/04/08 13:01:10;;;;;;;7.35;4.60;;;14.30;73.70;;;;;;5011060;28;20101;-87
2021/04/08 13:03:36;;;;;;;14.43;5.00;;;14.20;74.60;;;;;;5011221;28;20042;-86
2021/04/08 13:06:02;;;;;;;8.38;4.70;;;14.20;74.60;;;;;;5010885;28;20030;-87
2021/04/08 13:08:30;;;;;;;5.45;4.68;;;14.30;73.20;;;;;;5010827;28;20022;-87